MSS weather

Massena International Richards Field
Massena, New York, United States

Public forecast

Using degrees Fahrenheit for public forecast. Weather courtesy of forecast.io.

METAR (pilot weather report)

Retrieved 2019/05/22 15:53 UTC (15 minutes ago):

KMSS 221553Z AUTO 00000KT 10SM CLR 17/02 A3029 RMK AO2 SLP259 T01720017

TAF (pilot weather forecast)

Retrieved 2019/05/22 12:42 UTC (3 hours ago):

TAF KMSS 221138Z 2212/2312 02005KT P6SM SKC TEMPO 2212/2213 SCT001 FM230000 13004KT P6SM BKN150